Terminal Aerodrome Forecast
Issued by NWS

Home | Current Version | Previous Version | Text Only | Print | Product List | Glossary On
Versions: 1 2 3 4 5 6 7 8 9 10 11 12 13 14 15 16 17
000
FTUS41 KALY 180931 AAC
TAFPSF
TAF AMD
KPSF 180931Z 1810/1906 VRB03KT P6SM VCSH BKN015 OVC045
      TEMPO 1810/1812 SCT015 OVC045
     FM181400 21004KT 6SM BR VCSH OVC015
     FM182300 24005KT 4SM BR VCSH OVC008=

USA.gov is the U.S. government's official web portal to all federal, state and local government web resources and services.